createdAt,value
2019-05-07T00:01:43.045Z,77.91
2019-05-07T00:04:12.928Z,77.94
2019-05-07T00:06:43.313Z,77.79
2019-05-07T00:09:12.730Z,77.73
2019-05-07T00:11:42.620Z,77.68
2019-05-07T00:14:12.580Z,77.58
2019-05-07T00:16:42.199Z,77.39
2019-05-07T00:19:12.712Z,77.38
2019-05-07T00:21:42.316Z,77.34
2019-05-07T00:24:12.958Z,77.64
2019-05-07T00:26:42.797Z,77.58
2019-05-07T00:29:12.796Z,77.59
2019-05-07T00:31:42.005Z,77.62
2019-05-07T00:34:12.545Z,77.63
2019-05-07T00:36:44.401Z,77.72
2019-05-07T00:39:27.146Z,77.78
2019-05-07T00:41:57.033Z,77.96
2019-05-07T00:44:25.633Z,78.04
2019-05-07T00:46:53.847Z,78.18
2019-05-07T00:49:24.171Z,78.38
2019-05-07T00:51:52.387Z,78.45
2019-05-07T00:54:22.874Z,78.56
2019-05-07T00:56:52.148Z,78.71
2019-05-07T00:59:22.408Z,78.61
2019-05-07T01:01:52.799Z,78.66
2019-05-07T01:04:22.915Z,78.83
2019-05-07T01:06:53.225Z,78.78
2019-05-07T01:09:22.878Z,78.78
2019-05-07T01:11:52.400Z,78.73
2019-05-07T01:14:22.659Z,78.54
2019-05-07T01:16:52.707Z,78.28
2019-05-07T01:19:21.924Z,78.18
2019-05-07T01:21:52.351Z,78.29
2019-05-07T01:24:23.331Z,78.42
2019-05-07T01:26:52.946Z,78.81
2019-05-07T01:29:22.564Z,79.11
2019-05-07T01:31:55.339Z,79.07
2019-05-07T01:34:25.215Z,79.10
2019-05-07T01:36:53.552Z,79.28
2019-05-07T01:39:23.149Z,79.26
2019-05-07T01:41:52.478Z,79.30
2019-05-07T01:44:22.158Z,79.50
2019-05-07T01:46:52.749Z,79.54
2019-05-07T01:49:20.448Z,79.42
2019-05-07T01:51:48.947Z,79.38
2019-05-07T01:54:17.210Z,79.38
2019-05-07T01:56:45.428Z,79.38
2019-05-07T01:59:13.661Z,79.30
2019-05-07T02:01:42.884Z,79.09
2019-05-07T02:04:13.000Z,78.87
2019-05-07T02:06:58.835Z,78.71
2019-05-07T02:09:28.725Z,78.66
2019-05-07T02:12:02.462Z,78.74
2019-05-07T02:14:30.187Z,78.89
2019-05-07T02:16:58.391Z,79.05
2019-05-07T02:19:26.933Z,79.11
2019-05-07T02:21:55.141Z,79.19
2019-05-07T02:24:23.399Z,79.38
2019-05-07T02:26:52.130Z,79.52
2019-05-07T02:29:20.347Z,79.45
2019-05-07T02:31:48.569Z,79.40
2019-05-07T02:34:16.802Z,79.32
2019-05-07T02:36:45.368Z,79.28
2019-05-07T02:39:17.614Z,79.30
2019-05-07T02:41:45.844Z,79.47
2019-05-07T02:44:14.434Z,79.52
2019-05-07T02:46:47.199Z,79.40
2019-05-07T02:49:23.453Z,79.63
2019-05-07T02:52:04.152Z,79.66
2019-05-07T02:54:53.160Z,79.98
2019-05-07T02:57:20.039Z,79.94
2019-05-07T02:59:48.250Z,79.87
2019-05-07T03:02:16.882Z,79.74
2019-05-07T03:04:45.103Z,79.49
2019-05-07T03:07:13.445Z,79.19
2019-05-07T03:09:43.189Z,79.07
2019-05-07T03:12:13.181Z,78.96
2019-05-07T03:14:43.863Z,79.04
2019-05-07T03:17:13.392Z,79.20
2019-05-07T03:19:43.269Z,79.37
2019-05-07T03:22:13.996Z,79.51
2019-05-07T03:24:43.705Z,79.59
2019-05-07T03:27:14.176Z,79.72
2019-05-07T03:29:44.494Z,79.94
2019-05-07T03:32:36.651Z,79.93
2019-05-07T03:35:16.433Z,79.85
2019-05-07T03:37:45.238Z,79.53
2019-05-07T03:40:14.286Z,79.45
2019-05-07T03:42:43.964Z,79.44
2019-05-07T03:45:17.533Z,79.48
2019-05-07T03:47:47.451Z,79.51
2019-05-07T03:50:16.569Z,79.59
2019-05-07T03:52:44.795Z,79.47
2019-05-07T03:55:14.522Z,79.31
2019-05-07T03:57:43.942Z,79.17
2019-05-07T04:00:13.232Z,78.96
2019-05-07T04:02:43.716Z,78.83
2019-05-07T04:05:14.097Z,78.71
2019-05-07T04:07:42.985Z,78.60
2019-05-07T04:10:14.658Z,77.54
2019-05-07T04:12:44.181Z,75.80
2019-05-07T04:15:14.648Z,73.56
2019-05-07T04:17:43.348Z,71.72
2019-05-07T04:20:13.416Z,70.16
2019-05-07T04:22:43.058Z,68.38
2019-05-07T04:25:28.520Z,67.00
2019-05-07T04:28:10.702Z,65.12
2019-05-07T04:30:39.285Z,63.68
2019-05-07T04:33:09.164Z,61.10
2019-05-07T04:35:43.483Z,59.80
2019-05-07T04:38:13.737Z,59.09
2019-05-07T04:40:43.445Z,58.07
2019-05-07T04:43:13.668Z,57.31
2019-05-07T04:45:43.267Z,57.03
2019-05-07T04:48:14.194Z,55.40
2019-05-07T04:50:47.534Z,54.48
2019-05-07T04:53:13.968Z,52.63
2019-05-07T04:55:43.049Z,51.44
2019-05-07T04:58:13.993Z,51.17
2019-05-07T05:00:43.151Z,49.87
2019-05-07T05:03:19.532Z,50.00
2019-05-07T05:05:47.752Z,48.92
2019-05-07T05:08:16.927Z,46.75
2019-05-07T05:10:45.167Z,47.04
2019-05-07T05:13:13.374Z,47.32
2019-05-07T05:15:43.107Z,46.90
2019-05-07T05:18:12.747Z,46.17
2019-05-07T05:20:46.046Z,45.30
2019-05-07T05:23:16.213Z,44.43
2019-05-07T05:25:45.061Z,44.62
2019-05-07T05:28:13.857Z,44.70
2019-05-07T05:30:53.969Z,44.13
2019-05-07T05:33:23.485Z,43.75
2019-05-07T05:35:52.563Z,43.12
2019-05-07T05:38:22.166Z,42.66
2019-05-07T05:40:52.079Z,42.59
2019-05-07T05:43:22.863Z,43.06
2019-05-07T05:45:53.080Z,43.54
2019-05-07T05:48:22.416Z,43.62
2019-05-07T05:51:02.683Z,43.56
2019-05-07T05:53:32.857Z,43.24
2019-05-07T05:56:02.773Z,43.23
2019-05-07T05:58:32.951Z,42.79
2019-05-07T06:01:08.664Z,44.32
2019-05-07T06:03:43.021Z,45.37
2019-05-07T06:06:12.999Z,46.09
2019-05-07T06:08:43.498Z,46.51
2019-05-07T06:11:13.382Z,47.03
2019-05-07T06:13:45.965Z,48.13
2019-05-07T06:16:18.579Z,49.90
2019-05-07T06:18:57.251Z,51.67
2019-05-07T06:21:27.122Z,52.35
2019-05-07T06:24:02.806Z,52.62
2019-05-07T06:26:31.904Z,52.77
2019-05-07T06:29:02.310Z,52.81
2019-05-07T06:31:32.534Z,53.07
2019-05-07T06:34:01.834Z,53.48
2019-05-07T06:36:32.835Z,53.33
2019-05-07T06:39:19.013Z,53.18
2019-05-07T06:42:05.104Z,52.86
2019-05-07T06:44:33.595Z,53.05
2019-05-07T06:47:02.448Z,53.17
2019-05-07T06:49:32.424Z,52.96
2019-05-07T06:52:02.838Z,52.63
2019-05-07T06:54:32.127Z,52.30
2019-05-07T06:57:01.970Z,52.45
2019-05-07T06:59:34.972Z,52.27
2019-05-07T07:02:22.535Z,51.84
2019-05-07T07:04:58.249Z,51.61
2019-05-07T07:07:37.308Z,51.38
2019-05-07T07:10:11.985Z,50.85
2019-05-07T07:12:44.626Z,50.83
2019-05-07T07:15:12.858Z,51.20
2019-05-07T07:17:41.878Z,51.39
2019-05-07T07:20:12.542Z,51.25
2019-05-07T07:22:42.450Z,50.36
2019-05-07T07:25:11.881Z,50.77
2019-05-07T07:27:42.820Z,50.94
2019-05-07T07:30:21.830Z,50.36
2019-05-07T07:32:52.001Z,49.22
2019-05-07T07:35:22.443Z,48.17
2019-05-07T07:37:50.445Z,47.35
2019-05-07T07:40:22.429Z,46.96
2019-05-07T07:42:52.025Z,46.84
2019-05-07T07:45:22.815Z,46.67
2019-05-07T07:47:53.008Z,46.53
2019-05-07T07:50:22.426Z,46.77
2019-05-07T07:52:52.984Z,46.75
2019-05-07T07:55:22.896Z,46.41
2019-05-07T07:57:56.512Z,45.96
2019-05-07T08:00:35.828Z,44.54
2019-05-07T08:03:05.709Z,44.71
2019-05-07T08:05:33.921Z,44.81
2019-05-07T08:08:02.398Z,44.75
2019-05-07T08:10:32.576Z,44.11
2019-05-07T08:13:01.921Z,41.54
2019-05-07T08:15:33.085Z,39.43
2019-05-07T08:18:02.812Z,39.98
2019-05-07T08:20:32.626Z,39.50
2019-05-07T08:23:02.952Z,39.44
2019-05-07T08:25:52.287Z,38.31
2019-05-07T08:28:22.852Z,38.67
2019-05-07T08:30:52.713Z,39.06
2019-05-07T08:33:22.572Z,39.02
2019-05-07T08:35:58.366Z,38.45
2019-05-07T08:38:29.846Z,38.70
2019-05-07T08:40:56.538Z,37.90
2019-05-07T08:43:24.747Z,37.83
2019-05-07T08:46:12.091Z,37.20
2019-05-07T08:48:42.452Z,37.23
2019-05-07T08:51:11.932Z,37.19
2019-05-07T08:53:42.202Z,37.65
2019-05-07T08:56:12.314Z,38.20
2019-05-07T08:58:42.022Z,38.88
2019-05-07T09:01:11.883Z,40.08
2019-05-07T09:03:43.040Z,40.08
2019-05-07T09:06:12.955Z,40.03
2019-05-07T09:08:43.502Z,38.47
2019-05-07T09:11:13.303Z,38.50
2019-05-07T09:13:42.087Z,38.27
2019-05-07T09:16:12.805Z,38.39
2019-05-07T09:18:42.200Z,38.70
2019-05-07T09:21:12.325Z,38.27
2019-05-07T09:23:42.215Z,38.53
2019-05-07T09:26:13.054Z,38.51
2019-05-07T09:28:52.411Z,38.85
2019-05-07T09:31:28.013Z,38.74
2019-05-07T09:33:57.884Z,38.35
2019-05-07T09:36:27.758Z,38.10
2019-05-07T09:38:58.989Z,38.00
2019-05-07T09:41:28.337Z,36.91
2019-05-07T09:43:57.305Z,36.36
2019-05-07T09:46:25.682Z,36.17
2019-05-07T09:48:53.957Z,36.17
2019-05-07T09:51:22.687Z,35.73
2019-05-07T09:53:51.966Z,35.36
2019-05-07T09:56:22.469Z,35.06
2019-05-07T09:58:52.926Z,35.20
2019-05-07T10:01:23.572Z,34.06
2019-05-07T10:03:51.906Z,34.16
2019-05-07T10:06:20.411Z,33.58
2019-05-07T10:08:48.625Z,33.09
2019-05-07T10:11:18.499Z,33.31
2019-05-07T10:14:06.756Z,33.83
2019-05-07T10:16:42.379Z,34.22
2019-05-07T10:19:10.614Z,33.57
2019-05-07T10:21:38.962Z,33.67
2019-05-07T10:24:07.159Z,33.91
2019-05-07T10:26:35.382Z,32.57
2019-05-07T10:29:03.602Z,32.45
2019-05-07T10:31:32.105Z,31.92
2019-05-07T10:34:00.355Z,32.05
2019-05-07T10:36:28.567Z,32.24
2019-05-07T10:38:56.833Z,31.80
2019-05-07T10:41:25.189Z,31.39
2019-05-07T10:43:53.444Z,31.34
2019-05-07T10:46:42.317Z,31.47
2019-05-07T10:49:12.407Z,31.22
2019-05-07T10:51:42.559Z,31.18
2019-05-07T10:54:12.588Z,30.90
2019-05-07T10:56:41.883Z,30.73
2019-05-07T10:59:12.175Z,30.82
2019-05-07T11:01:45.421Z,29.91
2019-05-07T11:04:13.640Z,30.42
2019-05-07T11:06:41.924Z,30.69
2019-05-07T11:09:10.181Z,31.15
2019-05-07T11:11:38.366Z,31.71
2019-05-07T11:14:06.694Z,33.02
2019-05-07T11:16:36.843Z,33.23
2019-05-07T11:19:05.443Z,33.40
2019-05-07T11:21:33.746Z,33.94
2019-05-07T11:24:03.291Z,31.03
2019-05-07T11:26:35.080Z,30.99
2019-05-07T11:29:03.489Z,30.35
2019-05-07T11:31:33.102Z,30.23
2019-05-07T11:34:02.761Z,30.18
2019-05-07T11:36:32.077Z,30.17
2019-05-07T11:39:01.991Z,30.70
2019-05-07T11:41:32.123Z,31.89
2019-05-07T11:44:02.057Z,33.01
2019-05-07T11:46:32.810Z,33.91
2019-05-07T11:49:05.770Z,34.32
2019-05-07T11:51:38.350Z,34.87
2019-05-07T11:54:13.573Z,35.48
2019-05-07T11:56:42.397Z,35.96
2019-05-07T11:59:13.106Z,36.23
2019-05-07T12:01:47.223Z,35.96
2019-05-07T12:04:12.871Z,35.47
2019-05-07T12:06:41.380Z,34.85
2019-05-07T12:09:09.591Z,34.90
2019-05-07T12:11:38.385Z,34.88
2019-05-07T12:14:06.941Z,34.85
2019-05-07T12:16:35.552Z,34.45
2019-05-07T12:19:03.765Z,33.78
2019-05-07T12:21:32.353Z,33.59
2019-05-07T12:24:02.171Z,33.98
2019-05-07T12:26:31.951Z,34.26
2019-05-07T12:29:00.477Z,33.94
2019-05-07T12:31:46.624Z,33.65
2019-05-07T12:34:16.485Z,33.38
2019-05-07T12:36:44.706Z,33.13
2019-05-07T12:39:13.371Z,33.11
2019-05-07T12:41:43.076Z,33.85
2019-05-07T12:44:12.964Z,34.38
2019-05-07T12:46:42.294Z,34.46
2019-05-07T12:49:12.025Z,34.44
2019-05-07T12:51:42.686Z,33.75
2019-05-07T12:54:25.333Z,32.47
2019-05-07T12:56:53.542Z,32.38
2019-05-07T12:59:22.014Z,31.48
2019-05-07T13:01:52.237Z,31.29
2019-05-07T13:04:32.486Z,31.15
2019-05-07T13:07:02.621Z,31.25
2019-05-07T13:09:32.489Z,31.32
2019-05-07T13:12:03.014Z,31.18
2019-05-07T13:14:31.465Z,31.43
2019-05-07T13:17:00.098Z,31.24
2019-05-07T13:19:29.169Z,31.73
2019-05-07T13:21:58.225Z,32.10
2019-05-07T13:24:27.318Z,32.26
2019-05-07T13:26:55.538Z,33.53
2019-05-07T13:29:23.764Z,35.21
2019-05-07T13:31:54.310Z,35.71
2019-05-07T13:34:22.870Z,35.34
2019-05-07T13:36:54.676Z,34.84
2019-05-07T13:39:27.852Z,34.85
2019-05-07T13:42:07.037Z,33.60
2019-05-07T13:44:37.851Z,34.03
2019-05-07T13:47:23.906Z,34.59
2019-05-07T13:49:53.810Z,35.13
2019-05-07T13:52:23.857Z,35.38
2019-05-07T13:54:53.060Z,35.68
2019-05-07T13:57:22.660Z,35.91
2019-05-07T13:59:53.067Z,36.07
2019-05-07T14:02:23.725Z,35.73
2019-05-07T14:04:52.651Z,35.94
2019-05-07T14:07:21.784Z,35.58
2019-05-07T14:09:50.124Z,35.42
2019-05-07T14:12:18.702Z,35.14
2019-05-07T14:14:46.917Z,35.26
2019-05-07T14:17:15.272Z,36.01
2019-05-07T14:19:43.479Z,36.32
2019-05-07T14:22:16.280Z,36.13
2019-05-07T14:24:42.224Z,35.80
2019-05-07T14:27:10.560Z,35.78
2019-05-07T14:29:38.763Z,35.80
2019-05-07T14:32:08.608Z,36.04
2019-05-07T14:34:38.503Z,36.17
2019-05-07T14:37:23.303Z,36.09
2019-05-07T14:39:51.921Z,36.19
2019-05-07T14:42:22.136Z,36.61
2019-05-07T14:44:52.633Z,36.80
2019-05-07T14:47:22.337Z,36.60
2019-05-07T14:49:52.964Z,36.46
2019-05-07T14:52:30.119Z,35.81
2019-05-07T14:54:51.044Z,35.58
2019-05-07T14:57:19.253Z,35.33
2019-05-07T14:59:47.799Z,35.29
2019-05-07T15:02:17.011Z,35.45
2019-05-07T15:04:45.226Z,35.75
2019-05-07T15:07:13.460Z,35.83
2019-05-07T15:09:42.625Z,35.94
2019-05-07T15:12:12.445Z,36.34
2019-05-07T15:14:42.130Z,36.21
2019-05-07T15:17:12.900Z,36.34
2019-05-07T15:19:42.753Z,36.28
2019-05-07T15:22:13.026Z,36.35
2019-05-07T15:24:41.781Z,36.50
2019-05-07T15:27:12.184Z,36.64
2019-05-07T15:29:42.100Z,36.67
2019-05-07T15:32:12.602Z,36.34
2019-05-07T15:34:42.111Z,36.54
2019-05-07T15:37:12.300Z,36.93
2019-05-07T15:39:42.153Z,37.17
2019-05-07T15:42:10.515Z,37.33
2019-05-07T15:44:38.721Z,37.67
2019-05-07T15:47:08.563Z,37.79
2019-05-07T15:49:36.803Z,37.81
2019-05-07T15:52:06.649Z,38.09
2019-05-07T15:54:34.859Z,38.75
2019-05-07T15:57:04.728Z,38.31
2019-05-07T15:59:32.928Z,37.85
2019-05-07T16:02:06.031Z,37.20
2019-05-07T16:04:35.003Z,36.84
2019-05-07T16:07:05.228Z,36.40
2019-05-07T16:09:45.439Z,36.72
2019-05-07T16:12:15.303Z,36.86
2019-05-07T16:14:43.514Z,36.88
2019-05-07T16:17:13.387Z,36.94
2019-05-07T16:19:42.561Z,36.98
2019-05-07T16:22:12.804Z,36.84
2019-05-07T16:24:41.164Z,36.92
2019-05-07T16:27:09.400Z,36.98
2019-05-07T16:29:37.723Z,36.84
2019-05-07T16:32:06.051Z,36.86
2019-05-07T16:34:34.310Z,37.09
2019-05-07T16:37:06.803Z,37.10
2019-05-07T16:39:32.804Z,37.35
2019-05-07T16:42:01.866Z,37.26
2019-05-07T16:44:30.204Z,37.13
2019-05-07T16:46:58.406Z,37.08
2019-05-07T16:49:26.647Z,37.14
2019-05-07T16:51:54.859Z,37.48
2019-05-07T16:54:23.404Z,37.48
2019-05-07T16:57:03.122Z,37.56
2019-05-07T16:59:32.330Z,37.78
2019-05-07T17:02:02.745Z,37.84
2019-05-07T17:04:31.954Z,38.00
2019-05-07T17:07:02.547Z,37.83
2019-05-07T17:09:32.267Z,37.51
2019-05-07T17:12:03.050Z,37.58
2019-05-07T17:14:31.254Z,37.62
2019-05-07T17:16:59.791Z,37.76
2019-05-07T17:19:28.013Z,37.93
2019-05-07T17:21:56.595Z,38.31
2019-05-07T17:24:24.805Z,38.33
2019-05-07T17:26:53.046Z,38.55
2019-05-07T17:29:22.698Z,38.70
2019-05-07T17:31:52.720Z,38.72
2019-05-07T17:34:22.161Z,38.98
2019-05-07T17:36:52.441Z,39.18
2019-05-07T17:39:22.670Z,39.32
2019-05-07T17:41:51.846Z,39.25
2019-05-07T17:44:21.010Z,39.08
2019-05-07T17:46:51.841Z,39.21
2019-05-07T17:49:21.895Z,39.31
2019-05-07T17:51:52.457Z,39.52
2019-05-07T17:54:22.330Z,39.39
2019-05-07T17:56:52.560Z,39.38
2019-05-07T17:59:20.573Z,39.48
2019-05-07T18:02:01.788Z,39.50
2019-05-07T18:04:32.453Z,39.70
2019-05-07T18:07:01.125Z,39.91
2019-05-07T18:09:31.882Z,39.86
2019-05-07T18:12:00.260Z,40.05
2019-05-07T18:14:28.564Z,40.20
2019-05-07T18:16:58.786Z,40.53
2019-05-07T18:19:28.653Z,40.74
2019-05-07T18:21:56.896Z,41.16
2019-05-07T18:24:25.658Z,41.34
2019-05-07T18:26:54.006Z,41.51
2019-05-07T18:29:22.607Z,41.88
2019-05-07T18:31:55.318Z,42.29
2019-05-07T18:34:23.540Z,42.69
2019-05-07T18:36:53.045Z,42.73
2019-05-07T18:39:21.346Z,43.06
2019-05-07T18:41:52.135Z,43.02
2019-05-07T18:44:22.145Z,43.27
2019-05-07T18:46:52.695Z,43.60
2019-05-07T18:49:20.846Z,43.58
2019-05-07T18:51:49.122Z,43.76
2019-05-07T18:54:27.950Z,44.03
2019-05-07T18:56:47.301Z,44.32
2019-05-07T18:59:16.663Z,44.42
2019-05-07T19:01:45.152Z,44.32
2019-05-07T19:04:13.356Z,44.19
2019-05-07T19:06:42.421Z,44.42
2019-05-07T19:09:11.306Z,44.55
2019-05-07T19:11:39.895Z,44.46
2019-05-07T19:14:08.121Z,44.62
2019-05-07T19:16:36.658Z,44.99
2019-05-07T19:19:05.837Z,45.33
2019-05-07T19:21:34.545Z,45.70
2019-05-07T19:24:03.024Z,45.90
2019-05-07T19:26:32.091Z,46.06
2019-05-07T19:29:02.571Z,46.17
2019-05-07T19:31:32.516Z,46.28
2019-05-07T19:34:02.932Z,46.18
2019-05-07T19:36:32.178Z,46.35
2019-05-07T19:39:01.958Z,46.35
2019-05-07T19:41:32.126Z,46.38
2019-05-07T19:44:02.039Z,46.35
2019-05-07T19:46:30.712Z,46.67
2019-05-07T19:48:59.184Z,46.89
2019-05-07T19:51:27.472Z,47.17
2019-05-07T19:53:56.293Z,47.25
2019-05-07T19:56:25.562Z,47.17
2019-05-07T19:58:53.777Z,47.12
2019-05-07T20:01:23.709Z,47.13
2019-05-07T20:03:52.870Z,47.01
2019-05-07T20:06:23.377Z,46.51
2019-05-07T20:08:52.907Z,46.38
2019-05-07T20:11:32.464Z,46.26
2019-05-07T20:14:02.018Z,46.31
2019-05-07T20:16:32.403Z,46.39
2019-05-07T20:19:00.397Z,46.64
2019-05-07T20:21:28.900Z,46.93
2019-05-07T20:23:57.110Z,47.20
2019-05-07T20:26:25.339Z,47.52
2019-05-07T20:28:53.548Z,47.91
2019-05-07T20:31:22.561Z,48.36
2019-05-07T20:33:53.166Z,48.73
2019-05-07T20:36:21.099Z,48.92
2019-05-07T20:38:51.912Z,48.91
2019-05-07T20:41:19.915Z,48.93
2019-05-07T20:43:48.294Z,48.95
2019-05-07T20:46:16.607Z,49.05
2019-05-07T20:48:44.884Z,49.10
2019-05-07T20:51:13.100Z,49.17
2019-05-07T20:54:00.273Z,49.41
2019-05-07T20:56:38.990Z,49.55
2019-05-07T20:59:07.203Z,49.80
2019-05-07T21:01:35.739Z,49.87
2019-05-07T21:04:03.968Z,50.03
2019-05-07T21:06:32.545Z,50.15
2019-05-07T21:09:00.764Z,50.17
2019-05-07T21:11:29.098Z,50.14
2019-05-07T21:13:57.645Z,50.22
2019-05-07T21:16:25.854Z,50.36
2019-05-07T21:18:54.072Z,50.48
2019-05-07T21:21:22.544Z,50.57
2019-05-07T21:23:52.693Z,50.61
2019-05-07T21:26:22.543Z,50.68
2019-05-07T21:28:52.739Z,50.69
2019-05-07T21:31:22.682Z,50.52
2019-05-07T21:33:52.379Z,50.39
2019-05-07T21:36:22.791Z,50.44
2019-05-07T21:38:51.981Z,50.49
2019-05-07T21:41:22.518Z,50.64
2019-05-07T21:43:50.178Z,50.69
2019-05-07T21:46:18.388Z,50.72
2019-05-07T21:48:46.605Z,50.87
2019-05-07T21:51:14.831Z,50.95
2019-05-07T21:53:47.123Z,50.98
2019-05-07T21:56:22.944Z,50.96
2019-05-07T21:58:54.135Z,50.99
2019-05-07T22:01:24.039Z,51.10
2019-05-07T22:03:53.912Z,51.17
2019-05-07T22:06:22.654Z,51.24
2019-05-07T22:08:52.534Z,51.39
2019-05-07T22:11:22.950Z,51.47
2019-05-07T22:13:52.781Z,51.63
2019-05-07T22:16:22.147Z,51.88
2019-05-07T22:18:52.213Z,52.14
2019-05-07T22:21:20.503Z,52.37
2019-05-07T22:23:48.728Z,52.61
2019-05-07T22:26:22.885Z,52.79
2019-05-07T22:28:46.865Z,52.90
2019-05-07T22:31:25.403Z,53.07
2019-05-07T22:34:12.813Z,53.23
2019-05-07T22:36:43.149Z,53.49
2019-05-07T22:39:12.607Z,53.82
2019-05-07T22:41:42.460Z,54.19
2019-05-07T22:44:12.003Z,54.42
2019-05-07T22:46:42.144Z,54.67
2019-05-07T22:49:12.265Z,54.73
2019-05-07T22:51:40.470Z,54.99
2019-05-07T22:54:08.695Z,55.20
2019-05-07T22:56:54.623Z,55.21
2019-05-07T22:59:23.227Z,55.26
2019-05-07T23:01:55.079Z,55.38
2019-05-07T23:04:22.938Z,55.43
2019-05-07T23:06:52.846Z,55.48
2019-05-07T23:09:22.363Z,55.47
2019-05-07T23:11:52.550Z,55.60
2019-05-07T23:14:22.631Z,55.71
2019-05-07T23:16:52.559Z,55.57
2019-05-07T23:19:22.082Z,55.44
2019-05-07T23:21:52.207Z,55.51
2019-05-07T23:24:24.488Z,55.56
2019-05-07T23:26:53.361Z,55.73
2019-05-07T23:29:22.449Z,56.02
2019-05-07T23:31:52.849Z,56.17
2019-05-07T23:34:21.967Z,56.47
2019-05-07T23:36:53.075Z,56.74
2019-05-07T23:39:22.207Z,56.95
2019-05-07T23:42:02.299Z,57.13
2019-05-07T23:44:30.667Z,57.26
2019-05-07T23:46:58.864Z,57.38
2019-05-07T23:49:27.375Z,57.72
2019-05-07T23:51:55.954Z,57.85
2019-05-07T23:54:24.154Z,57.99
2019-05-07T23:57:04.986Z,58.19
2019-05-07T23:59:22.468Z,58.30
